Siam — SGIP — position and weather

sailwx.info

Track history (hours):
 
Tides and Currents Weather Stations Pressure Air Temp Water Temp Dewpoint Dewpoint Depression Visibility Wind Speed Wind Dir Waves Ship Positions

Siam

Last reported at 2016-May-29 13:27 UTC. Time now 2016-May-31 16:09 UTC.
Position N 56°06' E 012°31'.

Length 22 m.

Type: Passenger vessel. MMSI: 265572320.

Date/timePositionNaut miles runAvg speedWind from/ knotsBaromVisibWave heightAir tempDewpointWater temp
2016-May-29 13:27N 56°06' E 012°31'8 9.0
2016-May-29 12:33N 56°00' E 012°42'2 1.7
2016-May-29 11:30N 55°60' E 012°45'2 1.6
2016-May-29 10:33N 56°00' E 012°42'1 1.3
2016-May-29 09:32N 55°59' E 012°41'0 0.3
2016-May-29 08:32N 55°59' E 012°41'0 0.1
2016-May-29 07:31N 55°59' E 012°41'0 0.2
2016-May-29 06:32N 55°59' E 012°41'2 2.1
2016-May-29 05:29N 55°60' E 012°45'0 0.0
2016-May-29 04:29N 55°60' E 012°45'0 0.0
2016-May-29 03:29N 55°60' E 012°45'0 0.0
2016-May-29 02:32N 55°60' E 012°45'0 0.0
2016-May-29 01:29N 55°60' E 012°45'0 0.0
2016-May-29 00:29N 55°60' E 012°45'0 0.0
2016-May-28 23:29N 55°60' E 012°45'0 0.0
2016-May-28 22:29N 55°60' E 012°45'0 0.0
2016-May-28 21:29N 55°60' E 012°45'0 0.0
2016-May-28 20:29N 55°60' E 012°45'0 0.0
2016-May-28 19:23N 55°60' E 012°45'0 0.0
2016-May-28 18:11N 55°60' E 012°45'0 0.0
2016-May-28 17:29N 55°60' E 012°45'0 0.0
2016-May-28 16:29N 55°60' E 012°45'0 0.0
2016-May-28 15:29N 55°60' E 012°45'0 0.0
2016-May-28 14:33N 55°60' E 012°45'4 3.3
2016-May-28 13:29N 55°56' E 012°43'2 1.9
2016-May-28 12:33N 55°57' E 012°41'0 0.3
2016-May-28 11:33N 55°58' E 012°41'2 1.8
2016-May-28 10:34N 55°59' E 012°43'1 0.4
2016-May-28 07:22N 55°59' E 012°42'2 0.1
2016-May-27 10:33N 55°60' E 012°45'0 0.0
2016-May-27 09:32N 55°60' E 012°45'0 0.0
2016-May-27 08:32N 55°60' E 012°45'0 0.0
2016-May-27 07:23N 55°60' E 012°45'0 0.0
2016-May-27 06:32N 55°60' E 012°45'0 0.0
2016-May-27 05:29N 55°60' E 012°45'0 0.0
2016-May-27 04:29N 55°60' E 012°45'0 0.0
2016-May-27 03:23N 55°60' E 012°45'0 0.0
2016-May-27 02:23N 55°60' E 012°45'0 0.0
2016-May-27 01:29N 55°60' E 012°45'0 0.0
2016-May-27 00:29N 55°60' E 012°45'0 0.0
2016-May-26 23:29N 55°60' E 012°45'0 0.0
2016-May-26 22:29N 55°60' E 012°45'0 0.0
2016-May-26 21:23N 55°60' E 012°45'0 0.0
2016-May-26 20:29N 55°60' E 012°45'0 0.0
2016-May-26 19:29N 55°60' E 012°45'0 0.0
2016-May-26 18:29N 55°60' E 012°45'0 0.0
2016-May-26 17:29N 55°60' E 012°45'0 0.0
2016-May-26 16:29N 55°60' E 012°45'0 0.0
2016-May-26 15:32N 55°60' E 012°45'0 0.0
2016-May-26 14:29N 55°60' E 012°45'0 0.0
2016-May-26 13:29N 55°60' E 012°45'0 0.0
2016-May-26 12:29N 55°60' E 012°45'0 0.0
2016-May-26 11:29N 55°60' E 012°45'0 0.0
2016-May-26 10:32N 55°60' E 012°45'0 0.0
2016-May-26 09:29N 55°60' E 012°45'0 0.0
2016-May-26 08:29N 55°60' E 012°45'0 0.0
2016-May-26 07:29N 55°60' E 012°45'0 0.0
2016-May-26 06:32N 55°60' E 012°45'0 0.0
2016-May-26 05:29N 55°60' E 012°45'0 0.0
2016-May-26 04:29N 55°60' E 012°45'0 0.0
2016-May-26 03:29N 55°60' E 012°45'0 0.0
2016-May-26 02:23N 55°60' E 012°45'0 0.0
2016-May-26 01:29N 55°60' E 012°45'0 0.0
2016-May-26 00:26N 55°60' E 012°45'0 0.0
2016-May-25 23:29N 55°60' E 012°45'0 0.0
2016-May-25 22:23N 55°60' E 012°45'0 0.0
2016-May-25 21:29N 55°60' E 012°45'0 0.0
2016-May-25 20:29N 55°60' E 012°45'0 0.0
2016-May-25 19:29N 55°60' E 012°45'0 0.0
2016-May-25 18:29N 55°60' E 012°45'0 0.0
2016-May-25 17:29N 55°60' E 012°45'0 0.0
2016-May-25 16:23N 55°60' E 012°45'0 0.0
2016-May-25 15:29N 55°60' E 012°45'0 0.0
2016-May-25 14:32N 55°60' E 012°45'0 0.0
2016-May-25 13:29N 55°60' E 012°45'0 0.0
2016-May-25 12:29N 55°60' E 012°45'0 0.0
2016-May-25 11:29N 55°60' E 012°45'0 0.0
2016-May-25 10:32N 55°60' E 012°45'0 0.0
2016-May-25 09:23N 55°60' E 012°45'0 0.0
2016-May-25 08:29N 55°60' E 012°45'0 0.0
2016-May-25 07:32N 55°60' E 012°45'0 0.0
2016-May-25 06:32N 55°60' E 012°45'0 0.0
2016-May-25 05:29N 55°60' E 012°45'0 0.0
2016-May-25 04:29N 55°60' E 012°45'0 0.0
2016-May-25 03:32N 55°60' E 012°45'0 0.0
2016-May-25 02:32N 55°60' E 012°45'0 0.0
2016-May-25 01:32N 55°60' E 012°45'0 0.0
2016-May-25 00:29N 55°60' E 012°45'0 0.0
2016-May-24 23:32N 55°60' E 012°45'0 0.0
2016-May-24 22:29N 55°60' E 012°45'0 0.0
2016-May-24 21:29N 55°60' E 012°45'0 0.0
2016-May-24 20:23N 55°60' E 012°45'0 0.0
2016-May-24 19:29N 55°60' E 012°45'0 0.0
2016-May-24 18:29N 55°60' E 012°45'0 0.0
2016-May-24 17:23N 55°60' E 012°45'0 0.0
2016-May-24 16:23N 55°60' E 012°45'0 0.0
2016-May-24 15:32N 55°60' E 012°45'0 0.0
2016-May-24 14:29N 55°60' E 012°45'0 0.0
2016-May-24 13:29N 55°60' E 012°45'0 0.0
2016-May-24 12:29N 55°60' E 012°45'0 0.0
2016-May-24 11:32N 55°60' E 012°45'0 0.0
2016-May-24 10:29N 55°60' E 012°45'0 0.0
2016-May-24 09:29N 55°60' E 012°45'0 0.0
2016-May-24 08:32N 55°60' E 012°45'0 0.0
2016-May-24 07:32N 55°60' E 012°45'0 0.0
2016-May-24 06:29N 55°60' E 012°45'0 0.0
2016-May-24 05:29N 55°60' E 012°45'0 0.0
2016-May-24 04:29N 55°60' E 012°45'0 0.0
2016-May-24 03:30N 55°60' E 012°45'0 0.0
2016-May-24 02:24N 55°60' E 012°45'0 0.0
2016-May-24 01:33N 55°60' E 012°45'0 0.0
2016-May-24 00:24N 55°60' E 012°45'0 0.0
2016-May-23 23:24N 55°60' E 012°45'0 0.0
2016-May-23 22:30N 55°60' E 012°45'0 0.0
2016-May-23 21:30N 55°60' E 012°45'0 0.0
2016-May-23 20:30N 55°60' E 012°45'0 0.0
2016-May-23 19:24N 55°60' E 012°45'0 0.0
2016-May-23 18:30N 55°60' E 012°45'0 0.0
2016-May-23 17:24N 55°60' E 012°45'0 0.0
2016-May-23 16:30N 55°60' E 012°45'0 0.0
2016-May-23 15:30N 55°60' E 012°45'0 0.0
2016-May-23 14:30N 55°60' E 012°45'0 0.0
2016-May-23 13:18N 55°60' E 012°45'0 0.0
2016-May-23 12:30N 55°60' E 012°45'0 0.0
2016-May-23 11:33N 55°60' E 012°45'0 0.0
2016-May-23 10:30N 55°60' E 012°45'0 0.0
2016-May-23 09:24N 55°60' E 012°45'0 0.0
2016-May-23 08:30N 55°60' E 012°45'0 0.0
2016-May-23 07:30N 55°60' E 012°45'0 0.0
2016-May-23 06:30N 55°60' E 012°45'0 0.0
2016-May-23 05:27N 55°60' E 012°45'0 0.0
2016-May-23 04:30N 55°60' E 012°45'0 0.0
2016-May-23 03:30N 55°60' E 012°45'0 0.0
2016-May-23 02:33N 55°60' E 012°45'0 0.0
2016-May-23 01:33N 55°60' E 012°45'0 0.0
2016-May-23 00:33N 55°60' E 012°45'0 0.0
2016-May-22 23:33N 55°60' E 012°45'0 0.0
2016-May-22 22:33N 55°60' E 012°45'0 0.0
2016-May-22 21:33N 55°60' E 012°45'0 0.0
2016-May-22 20:33N 55°60' E 012°45'0 0.0
2016-May-22 19:30N 55°60' E 012°45'0 0.0
2016-May-22 18:30N 55°60' E 012°45'0 0.0
2016-May-22 17:24N 55°60' E 012°45'0 0.0
2016-May-22 16:33N 55°60' E 012°45'0 0.0
2016-May-22 15:33N 55°60' E 012°45'0 0.0
2016-May-22 14:33N 55°60' E 012°45'0 0.0
2016-May-22 13:33N 55°60' E 012°45'0 0.0
2016-May-22 12:33N 55°60' E 012°45'0 0.0
2016-May-22 11:33N 55°60' E 012°45'0 0.0
2016-May-22 10:33N 55°60' E 012°45'0 0.0
2016-May-22 09:30N 55°60' E 012°45'0 0.0
2016-May-22 08:30N 55°60' E 012°45'0 0.0
2016-May-22 07:33N 55°60' E 012°45'0 0.0
2016-May-22 06:30N 55°60' E 012°45'0 0.0
2016-May-22 05:30N 55°60' E 012°45'0 0.0
2016-May-22 04:30N 55°60' E 012°45'0 0.0
2016-May-22 03:33N 55°60' E 012°45'0 0.0
2016-May-22 02:33N 55°60' E 012°45'0 0.0
2016-May-22 01:30N 55°60' E 012°45'0 0.0
2016-May-22 00:30N 55°60' E 012°45'0 0.0
2016-May-21 23:30N 55°60' E 012°45'0 0.0
2016-May-21 22:33N 55°60' E 012°45'0 0.0
2016-May-21 21:33N 55°60' E 012°45'0 0.0
2016-May-21 20:33N 55°60' E 012°45'0 0.0
2016-May-21 19:30N 55°60' E 012°45'0 0.0
2016-May-21 18:27N 55°60' E 012°45'0 0.0
2016-May-21 17:33N 55°60' E 012°45'0 0.0
2016-May-21 16:33N 55°60' E 012°45'0 0.0
2016-May-21 15:33N 55°60' E 012°45'0 0.0
2016-May-21 14:33N 55°60' E 012°45'0 0.0
2016-May-21 13:33N 55°60' E 012°45'0 0.0
2016-May-21 12:33N 55°60' E 012°45'0 0.0
2016-May-21 11:33N 55°60' E 012°45'0 0.0
2016-May-21 10:33N 55°60' E 012°45'4 3.3
2016-May-21 09:29N 55°56' E 012°43'2 1.9
2016-May-21 08:33N 55°57' E 012°41'0 0.3
2016-May-21 07:33N 55°58' E 012°41'1 1.1
2016-May-21 06:33N 55°59' E 012°41'2 1.8
2016-May-21 05:23N 55°60' E 012°45'0 0.0
2016-May-21 04:29N 55°60' E 012°45'0 0.0
2016-May-21 03:29N 55°60' E 012°45'0 0.0
2016-May-21 02:29N 55°60' E 012°45'0 0.0
2016-May-21 01:29N 55°60' E 012°45'0 0.0
2016-May-21 00:29N 55°60' E 012°45'0 0.0
2016-May-20 23:29N 55°60' E 012°45'0 0.0
2016-May-20 22:32N 55°60' E 012°45'0 0.0
2016-May-20 21:29N 55°60' E 012°45'0 0.0
2016-May-20 20:29N 55°60' E 012°45'0 0.0
2016-May-20 19:26N 55°60' E 012°45'0 0.0
2016-May-20 18:29N 55°60' E 012°45'0 0.0
2016-May-20 17:29N 55°60' E 012°45'0 0.0
2016-May-20 16:32N 55°60' E 012°45'0 0.0
2016-May-20 15:32N 55°60' E 012°45'0 0.0
2016-May-20 14:29N 55°60' E 012°45'0 0.0
2016-May-20 13:29N 55°60' E 012°45'0 0.0
2016-May-20 12:29N 55°60' E 012°45'3 3.4
2016-May-20 11:31N 55°56' E 012°45'0 0.2
2016-May-20 10:32N 55°56' E 012°44'1 0.6
2016-May-20 09:32N 55°56' E 012°43'1 1.0
2016-May-20 08:31N 55°56' E 012°42'1 1.2
2016-May-20 07:30N 55°58' E 012°41'1 1.1
2016-May-20 06:30N 55°59' E 012°41'2 1.0
2016-May-20 04:32N 55°60' E 012°45'0 0.0
2016-May-20 03:25N 55°60' E 012°45'0 0.0
2016-May-20 02:31N 55°60' E 012°45'  
Track history (hours):
 
Tides and Currents Weather Stations Pressure Air Temp Water Temp Dewpoint Dewpoint Depression Visibility Wind Speed Wind Dir Waves Ship Positions

Siam

Last reported at 2016-May-29 13:27 UTC. Time now 2016-May-31 16:09 UTC.
Position N 56°06' E 012°31'.

Length 22 m.

Type: Passenger vessel. MMSI: 265572320.

Date/timePositionNaut miles runAvg speedWind from/ knotsBaromVisibWave heightAir tempDewpointWater temp
2016-May-29 13:27N 56°06' E 012°31'8 9.0
2016-May-29 12:33N 56°00' E 012°42'2 1.7
2016-May-29 11:30N 55°60' E 012°45'2 1.6
2016-May-29 10:33N 56°00' E 012°42'1 1.3
2016-May-29 09:32N 55°59' E 012°41'0 0.3
2016-May-29 08:32N 55°59' E 012°41'0 0.1
2016-May-29 07:31N 55°59' E 012°41'0 0.2
2016-May-29 06:32N 55°59' E 012°41'2 2.1
2016-May-29 05:29N 55°60' E 012°45'0 0.0
2016-May-29 04:29N 55°60' E 012°45'0 0.0
2016-May-29 03:29N 55°60' E 012°45'0 0.0
2016-May-29 02:32N 55°60' E 012°45'0 0.0
2016-May-29 01:29N 55°60' E 012°45'0 0.0
2016-May-29 00:29N 55°60' E 012°45'0 0.0
2016-May-28 23:29N 55°60' E 012°45'0 0.0
2016-May-28 22:29N 55°60' E 012°45'0 0.0
2016-May-28 21:29N 55°60' E 012°45'0 0.0
2016-May-28 20:29N 55°60' E 012°45'0 0.0
2016-May-28 19:23N 55°60' E 012°45'0 0.0
2016-May-28 18:11N 55°60' E 012°45'0 0.0
2016-May-28 17:29N 55°60' E 012°45'0 0.0
2016-May-28 16:29N 55°60' E 012°45'0 0.0
2016-May-28 15:29N 55°60' E 012°45'0 0.0
2016-May-28 14:33N 55°60' E 012°45'4 3.3
2016-May-28 13:29N 55°56' E 012°43'2 1.9
2016-May-28 12:33N 55°57' E 012°41'0 0.3
2016-May-28 11:33N 55°58' E 012°41'2 1.8
2016-May-28 10:34N 55°59' E 012°43'1 0.4
2016-May-28 07:22N 55°59' E 012°42'2 0.1
2016-May-27 10:33N 55°60' E 012°45'0 0.0
2016-May-27 09:32N 55°60' E 012°45'0 0.0
2016-May-27 08:32N 55°60' E 012°45'0 0.0
2016-May-27 07:23N 55°60' E 012°45'0 0.0
2016-May-27 06:32N 55°60' E 012°45'0 0.0
2016-May-27 05:29N 55°60' E 012°45'0 0.0
2016-May-27 04:29N 55°60' E 012°45'0 0.0
2016-May-27 03:23N 55°60' E 012°45'0 0.0
2016-May-27 02:23N 55°60' E 012°45'0 0.0
2016-May-27 01:29N 55°60' E 012°45'0 0.0
2016-May-27 00:29N 55°60' E 012°45'0 0.0
2016-May-26 23:29N 55°60' E 012°45'0 0.0
2016-May-26 22:29N 55°60' E 012°45'0 0.0
2016-May-26 21:23N 55°60' E 012°45'0 0.0
2016-May-26 20:29N 55°60' E 012°45'0 0.0
2016-May-26 19:29N 55°60' E 012°45'0 0.0
2016-May-26 18:29N 55°60' E 012°45'0 0.0
2016-May-26 17:29N 55°60' E 012°45'0 0.0
2016-May-26 16:29N 55°60' E 012°45'0 0.0
2016-May-26 15:32N 55°60' E 012°45'0 0.0
2016-May-26 14:29N 55°60' E 012°45'0 0.0
2016-May-26 13:29N 55°60' E 012°45'0 0.0
2016-May-26 12:29N 55°60' E 012°45'0 0.0
2016-May-26 11:29N 55°60' E 012°45'0 0.0
2016-May-26 10:32N 55°60' E 012°45'0 0.0
2016-May-26 09:29N 55°60' E 012°45'0 0.0
2016-May-26 08:29N 55°60' E 012°45'0 0.0
2016-May-26 07:29N 55°60' E 012°45'0 0.0
2016-May-26 06:32N 55°60' E 012°45'0 0.0
2016-May-26 05:29N 55°60' E 012°45'0 0.0
2016-May-26 04:29N 55°60' E 012°45'0 0.0
2016-May-26 03:29N 55°60' E 012°45'0 0.0
2016-May-26 02:23N 55°60' E 012°45'0 0.0
2016-May-26 01:29N 55°60' E 012°45'0 0.0
2016-May-26 00:26N 55°60' E 012°45'0 0.0
2016-May-25 23:29N 55°60' E 012°45'0 0.0
2016-May-25 22:23N 55°60' E 012°45'0 0.0
2016-May-25 21:29N 55°60' E 012°45'0 0.0
2016-May-25 20:29N 55°60' E 012°45'0 0.0
2016-May-25 19:29N 55°60' E 012°45'0 0.0
2016-May-25 18:29N 55°60' E 012°45'0 0.0
2016-May-25 17:29N 55°60' E 012°45'0 0.0
2016-May-25 16:23N 55°60' E 012°45'0 0.0
2016-May-25 15:29N 55°60' E 012°45'0 0.0
2016-May-25 14:32N 55°60' E 012°45'0 0.0
2016-May-25 13:29N 55°60' E 012°45'0 0.0
2016-May-25 12:29N 55°60' E 012°45'0 0.0
2016-May-25 11:29N 55°60' E 012°45'0 0.0
2016-May-25 10:32N 55°60' E 012°45'0 0.0
2016-May-25 09:23N 55°60' E 012°45'0 0.0
2016-May-25 08:29N 55°60' E 012°45'0 0.0
2016-May-25 07:32N 55°60' E 012°45'0 0.0
2016-May-25 06:32N 55°60' E 012°45'0 0.0
2016-May-25 05:29N 55°60' E 012°45'0 0.0
2016-May-25 04:29N 55°60' E 012°45'0 0.0
2016-May-25 03:32N 55°60' E 012°45'0 0.0
2016-May-25 02:32N 55°60' E 012°45'0 0.0
2016-May-25 01:32N 55°60' E 012°45'0 0.0
2016-May-25 00:29N 55°60' E 012°45'0 0.0
2016-May-24 23:32N 55°60' E 012°45'0 0.0
2016-May-24 22:29N 55°60' E 012°45'0 0.0
2016-May-24 21:29N 55°60' E 012°45'0 0.0
2016-May-24 20:23N 55°60' E 012°45'0 0.0
2016-May-24 19:29N 55°60' E 012°45'0 0.0
2016-May-24 18:29N 55°60' E 012°45'0 0.0
2016-May-24 17:23N 55°60' E 012°45'0 0.0
2016-May-24 16:23N 55°60' E 012°45'0 0.0
2016-May-24 15:32N 55°60' E 012°45'0 0.0
2016-May-24 14:29N 55°60' E 012°45'0 0.0
2016-May-24 13:29N 55°60' E 012°45'0 0.0
2016-May-24 12:29N 55°60' E 012°45'0 0.0
2016-May-24 11:32N 55°60' E 012°45'0 0.0
2016-May-24 10:29N 55°60' E 012°45'0 0.0
2016-May-24 09:29N 55°60' E 012°45'0 0.0
2016-May-24 08:32N 55°60' E 012°45'0 0.0
2016-May-24 07:32N 55°60' E 012°45'0 0.0
2016-May-24 06:29N 55°60' E 012°45'0 0.0
2016-May-24 05:29N 55°60' E 012°45'0 0.0
2016-May-24 04:29N 55°60' E 012°45'0 0.0
2016-May-24 03:30N 55°60' E 012°45'0 0.0
2016-May-24 02:24N 55°60' E 012°45'0 0.0
2016-May-24 01:33N 55°60' E 012°45'0 0.0
2016-May-24 00:24N 55°60' E 012°45'0 0.0
2016-May-23 23:24N 55°60' E 012°45'0 0.0
2016-May-23 22:30N 55°60' E 012°45'0 0.0
2016-May-23 21:30N 55°60' E 012°45'0 0.0
2016-May-23 20:30N 55°60' E 012°45'0 0.0
2016-May-23 19:24N 55°60' E 012°45'0 0.0
2016-May-23 18:30N 55°60' E 012°45'0 0.0
2016-May-23 17:24N 55°60' E 012°45'0 0.0
2016-May-23 16:30N 55°60' E 012°45'0 0.0
2016-May-23 15:30N 55°60' E 012°45'0 0.0
2016-May-23 14:30N 55°60' E 012°45'0 0.0
2016-May-23 13:18N 55°60' E 012°45'0 0.0
2016-May-23 12:30N 55°60' E 012°45'0 0.0
2016-May-23 11:33N 55°60' E 012°45'0 0.0
2016-May-23 10:30N 55°60' E 012°45'0 0.0
2016-May-23 09:24N 55°60' E 012°45'0 0.0
2016-May-23 08:30N 55°60' E 012°45'0 0.0
2016-May-23 07:30N 55°60' E 012°45'0 0.0
2016-May-23 06:30N 55°60' E 012°45'0 0.0
2016-May-23 05:27N 55°60' E 012°45'0 0.0
2016-May-23 04:30N 55°60' E 012°45'0 0.0
2016-May-23 03:30N 55°60' E 012°45'0 0.0
2016-May-23 02:33N 55°60' E 012°45'0 0.0
2016-May-23 01:33N 55°60' E 012°45'0 0.0
2016-May-23 00:33N 55°60' E 012°45'0 0.0
2016-May-22 23:33N 55°60' E 012°45'0 0.0
2016-May-22 22:33N 55°60' E 012°45'0 0.0
2016-May-22 21:33N 55°60' E 012°45'0 0.0
2016-May-22 20:33N 55°60' E 012°45'0 0.0
2016-May-22 19:30N 55°60' E 012°45'0 0.0
2016-May-22 18:30N 55°60' E 012°45'0 0.0
2016-May-22 17:24N 55°60' E 012°45'0 0.0
2016-May-22 16:33N 55°60' E 012°45'0 0.0
2016-May-22 15:33N 55°60' E 012°45'0 0.0
2016-May-22 14:33N 55°60' E 012°45'0 0.0
2016-May-22 13:33N 55°60' E 012°45'0 0.0
2016-May-22 12:33N 55°60' E 012°45'0 0.0
2016-May-22 11:33N 55°60' E 012°45'0 0.0
2016-May-22 10:33N 55°60' E 012°45'0 0.0
2016-May-22 09:30N 55°60' E 012°45'0 0.0
2016-May-22 08:30N 55°60' E 012°45'0 0.0
2016-May-22 07:33N 55°60' E 012°45'0 0.0
2016-May-22 06:30N 55°60' E 012°45'0 0.0
2016-May-22 05:30N 55°60' E 012°45'0 0.0
2016-May-22 04:30N 55°60' E 012°45'0 0.0
2016-May-22 03:33N 55°60' E 012°45'0 0.0
2016-May-22 02:33N 55°60' E 012°45'0 0.0
2016-May-22 01:30N 55°60' E 012°45'0 0.0
2016-May-22 00:30N 55°60' E 012°45'0 0.0
2016-May-21 23:30N 55°60' E 012°45'0 0.0
2016-May-21 22:33N 55°60' E 012°45'0 0.0
2016-May-21 21:33N 55°60' E 012°45'0 0.0
2016-May-21 20:33N 55°60' E 012°45'0 0.0
2016-May-21 19:30N 55°60' E 012°45'0 0.0
2016-May-21 18:27N 55°60' E 012°45'0 0.0
2016-May-21 17:33N 55°60' E 012°45'0 0.0
2016-May-21 16:33N 55°60' E 012°45'0 0.0
2016-May-21 15:33N 55°60' E 012°45'0 0.0
2016-May-21 14:33N 55°60' E 012°45'0 0.0
2016-May-21 13:33N 55°60' E 012°45'0 0.0
2016-May-21 12:33N 55°60' E 012°45'0 0.0
2016-May-21 11:33N 55°60' E 012°45'0 0.0
2016-May-21 10:33N 55°60' E 012°45'4 3.3
2016-May-21 09:29N 55°56' E 012°43'2 1.9
2016-May-21 08:33N 55°57' E 012°41'0 0.3
2016-May-21 07:33N 55°58' E 012°41'1 1.1
2016-May-21 06:33N 55°59' E 012°41'2 1.8
2016-May-21 05:23N 55°60' E 012°45'0 0.0
2016-May-21 04:29N 55°60' E 012°45'0 0.0
2016-May-21 03:29N 55°60' E 012°45'0 0.0
2016-May-21 02:29N 55°60' E 012°45'0 0.0
2016-May-21 01:29N 55°60' E 012°45'0 0.0
2016-May-21 00:29N 55°60' E 012°45'0 0.0
2016-May-20 23:29N 55°60' E 012°45'0 0.0
2016-May-20 22:32N 55°60' E 012°45'0 0.0
2016-May-20 21:29N 55°60' E 012°45'0 0.0
2016-May-20 20:29N 55°60' E 012°45'0 0.0
2016-May-20 19:26N 55°60' E 012°45'0 0.0
2016-May-20 18:29N 55°60' E 012°45'0 0.0
2016-May-20 17:29N 55°60' E 012°45'0 0.0
2016-May-20 16:32N 55°60' E 012°45'0 0.0
2016-May-20 15:32N 55°60' E 012°45'0 0.0
2016-May-20 14:29N 55°60' E 012°45'0 0.0
2016-May-20 13:29N 55°60' E 012°45'0 0.0
2016-May-20 12:29N 55°60' E 012°45'3 3.4
2016-May-20 11:31N 55°56' E 012°45'0 0.2
2016-May-20 10:32N 55°56' E 012°44'1 0.6
2016-May-20 09:32N 55°56' E 012°43'1 1.0
2016-May-20 08:31N 55°56' E 012°42'1 1.2
2016-May-20 07:30N 55°58' E 012°41'1 1.1
2016-May-20 06:30N 55°59' E 012°41'2 1.0
2016-May-20 04:32N 55°60' E 012°45'0 0.0
2016-May-20 03:25N 55°60' E 012°45'0 0.0
2016-May-20 02:31N 55°60' E 012°45'  

Dump ship's entire track history